createdAt,value
2023-05-05T00:02:21.648Z,13.70
2023-05-05T00:04:48.568Z,16.48
2023-05-05T00:07:15.639Z,16.95
2023-05-05T00:09:43.610Z,16.48
2023-05-05T00:12:10.721Z,14.03
2023-05-05T00:14:37.822Z,14.32
2023-05-05T00:17:05.785Z,14.75
2023-05-05T00:19:36.311Z,11.70
2023-05-05T00:22:11.504Z,16.00
2023-05-05T00:24:45.147Z,12.47
2023-05-05T00:27:14.902Z,12.07
2023-05-05T00:29:45.051Z,11.15
2023-05-05T00:32:14.321Z,10.07
2023-05-05T00:34:41.138Z,12.20
2023-05-05T00:37:07.949Z,12.97
2023-05-05T00:39:34.796Z,12.20
2023-05-05T00:42:01.670Z,11.10
2023-05-05T00:44:38.277Z,10.90
2023-05-05T00:47:06.002Z,12.88
2023-05-05T00:49:33.719Z,12.63
2023-05-05T00:52:00.792Z,15.73
2023-05-05T00:54:28.186Z,14.27
2023-05-05T00:56:55.356Z,15.63
2023-05-05T00:59:22.392Z,13.15
2023-05-05T01:01:49.599Z,12.10
2023-05-05T01:04:16.462Z,13.65
2023-05-05T01:07:03.864Z,13.00
2023-05-05T01:10:18.033Z,14.95
2023-05-05T01:13:14.746Z,11.85
2023-05-05T01:15:50.655Z,17.43
2023-05-05T01:18:37.745Z,16.20
2023-05-05T01:21:42.797Z,11.93
2023-05-05T01:24:42.137Z,12.80
2023-05-05T01:27:30.792Z,10.43
2023-05-05T01:30:03.229Z,11.60
2023-05-05T01:32:34.097Z,12.68
2023-05-05T01:35:09.732Z,13.23
2023-05-05T01:38:17.352Z,12.70
2023-05-05T01:40:49.284Z,10.88
2023-05-05T01:43:20.359Z,13.30
2023-05-05T01:45:49.086Z,10.75
2023-05-05T01:48:19.733Z,15.00
2023-05-05T01:50:48.514Z,19.98
2023-05-05T01:53:18.268Z,17.23
2023-05-05T01:55:47.585Z,13.83
2023-05-05T01:58:16.352Z,12.90
2023-05-05T02:00:44.495Z,13.38
2023-05-05T02:03:13.936Z,10.85
2023-05-05T02:05:44.112Z,10.25
2023-05-05T02:08:12.556Z,10.93
2023-05-05T02:10:40.304Z,11.32
2023-05-05T02:13:08.200Z,10.48
2023-05-05T02:15:37.767Z,10.77
2023-05-05T02:18:06.944Z,13.43
2023-05-05T02:20:36.279Z,10.83
2023-05-05T02:23:03.326Z,13.80
2023-05-05T02:25:46.159Z,9.35
2023-05-05T02:28:21.545Z,11.85
2023-05-05T02:30:59.652Z,11.88
2023-05-05T02:33:29.593Z,11.00
2023-05-05T02:35:57.668Z,14.10
2023-05-05T02:38:30.848Z,14.50
2023-05-05T02:40:59.427Z,16.65
2023-05-05T02:43:30.055Z,15.35
2023-05-05T02:45:57.268Z,11.60
2023-05-05T02:48:24.158Z,14.07
2023-05-05T02:50:51.101Z,12.00
2023-05-05T02:53:23.808Z,14.85
2023-05-05T02:55:57.415Z,12.52
2023-05-05T02:58:57.209Z,14.00
2023-05-05T03:02:02.799Z,14.35
2023-05-05T03:04:38.610Z,16.80
2023-05-05T03:07:26.279Z,20.98
2023-05-05T03:10:05.527Z,12.60
2023-05-05T03:12:40.059Z,15.60
2023-05-05T03:15:10.634Z,11.93
2023-05-05T03:17:39.738Z,13.82
2023-05-05T03:20:08.200Z,11.82
2023-05-05T03:22:41.303Z,15.25
2023-05-05T03:25:08.635Z,12.43
2023-05-05T03:27:36.230Z,13.23
2023-05-05T03:30:03.356Z,12.55
2023-05-05T03:32:30.441Z,9.98
2023-05-05T03:34:57.686Z,12.77
2023-05-05T03:37:24.702Z,14.10
2023-05-05T03:39:51.567Z,20.25
2023-05-05T03:42:18.606Z,20.70
2023-05-05T03:44:45.689Z,20.77
2023-05-05T03:47:13.207Z,18.98
2023-05-05T03:49:40.132Z,18.57
2023-05-05T03:52:07.187Z,18.45
2023-05-05T03:54:34.364Z,18.98
2023-05-05T03:57:01.514Z,20.63
2023-05-05T03:59:28.523Z,17.95
2023-05-05T04:01:55.588Z,21.73
2023-05-05T04:04:22.484Z,18.00
2023-05-05T04:06:49.696Z,18.75
2023-05-05T04:09:16.541Z,19.67
2023-05-05T04:11:43.430Z,19.30
2023-05-05T04:14:10.508Z,14.77
2023-05-05T04:16:37.838Z,20.20
2023-05-05T04:19:04.738Z,10.82
2023-05-05T04:21:31.786Z,12.35
2023-05-05T04:23:58.758Z,8.50
2023-05-05T04:26:25.880Z,9.90
2023-05-05T04:28:53.022Z,7.40
2023-05-05T04:31:20.210Z,8.15
2023-05-05T04:33:47.340Z,6.60
2023-05-05T04:36:14.500Z,7.22
2023-05-05T04:38:41.550Z,7.53
2023-05-05T04:41:08.541Z,7.00
2023-05-05T04:43:35.595Z,6.78
2023-05-05T04:46:02.474Z,6.75
2023-05-05T04:48:29.350Z,6.28
2023-05-05T04:50:56.683Z,7.03
2023-05-05T04:53:24.821Z,9.43
2023-05-05T04:55:52.115Z,6.43
2023-05-05T04:58:19.832Z,5.85
2023-05-05T05:00:47.644Z,6.05
2023-05-05T05:03:14.758Z,8.30
2023-05-05T05:05:41.873Z,6.45
2023-05-05T05:08:08.929Z,6.05
2023-05-05T05:10:36.396Z,7.20
2023-05-05T05:13:12.902Z,6.93
2023-05-05T05:15:40.068Z,6.50
2023-05-05T05:18:14.340Z,5.65
2023-05-05T05:20:41.168Z,6.82
2023-05-05T05:23:07.945Z,6.70
2023-05-05T05:25:34.773Z,7.10
2023-05-05T05:28:10.346Z,7.67
2023-05-05T05:30:37.905Z,6.40
2023-05-05T05:33:15.909Z,5.53
2023-05-05T05:35:43.260Z,15.07
2023-05-05T05:38:10.143Z,6.38
2023-05-05T05:40:37.034Z,6.30
2023-05-05T05:43:17.352Z,8.80
2023-05-05T05:45:44.856Z,7.35
2023-05-05T05:48:11.773Z,7.90
2023-05-05T05:50:49.780Z,8.73
2023-05-05T05:53:16.664Z,11.73
2023-05-05T05:55:46.441Z,9.20
2023-05-05T05:58:13.287Z,9.15
2023-05-05T06:00:40.195Z,7.57
2023-05-05T06:03:07.152Z,7.45
2023-05-05T06:05:33.986Z,7.50
2023-05-05T06:08:01.288Z,13.07
2023-05-05T06:10:28.627Z,7.05
2023-05-05T06:12:55.580Z,7.03
2023-05-05T06:15:22.705Z,12.77
2023-05-05T06:17:49.514Z,6.03
2023-05-05T06:20:16.463Z,9.25
2023-05-05T06:22:44.602Z,6.95
2023-05-05T06:25:11.587Z,6.60
2023-05-05T06:27:38.609Z,8.32
2023-05-05T06:30:07.198Z,10.57
2023-05-05T06:32:34.280Z,6.63
2023-05-05T06:35:01.319Z,6.00
2023-05-05T06:37:39.101Z,7.03
2023-05-05T06:40:06.976Z,7.35
2023-05-05T06:42:34.032Z,8.47
2023-05-05T06:45:00.924Z,8.18
2023-05-05T06:47:27.766Z,5.95
2023-05-05T06:49:54.746Z,7.53
2023-05-05T06:52:23.197Z,5.05
2023-05-05T06:54:50.807Z,7.07
2023-05-05T06:57:17.706Z,7.95
2023-05-05T06:59:44.821Z,5.97
2023-05-05T07:02:11.684Z,8.82
2023-05-05T07:04:38.705Z,6.82
2023-05-05T07:07:05.591Z,6.97
2023-05-05T07:09:32.577Z,6.45
2023-05-05T07:11:59.459Z,6.43
2023-05-05T07:14:26.898Z,17.95
2023-05-05T07:16:54.009Z,8.52
2023-05-05T07:19:20.854Z,4.87
2023-05-05T07:21:55.216Z,6.10
2023-05-05T07:24:24.337Z,12.18
2023-05-05T07:26:51.349Z,11.60
2023-05-05T07:29:18.312Z,7.97
2023-05-05T07:31:45.587Z,6.97
2023-05-05T07:34:12.545Z,4.78
2023-05-05T07:36:39.504Z,5.30
2023-05-05T07:39:06.343Z,5.40
2023-05-05T07:41:34.282Z,13.40
2023-05-05T07:44:01.308Z,6.17
2023-05-05T07:46:28.286Z,5.53
2023-05-05T07:48:55.252Z,4.25
2023-05-05T07:51:22.127Z,8.40
2023-05-05T07:53:49.015Z,8.23
2023-05-05T07:56:16.168Z,6.77
2023-05-05T07:58:43.305Z,5.38
2023-05-05T08:01:10.237Z,4.82
2023-05-05T08:03:37.721Z,7.43
2023-05-05T08:06:09.499Z,4.80
2023-05-05T08:08:37.044Z,7.43
2023-05-05T08:11:03.985Z,11.07
2023-05-05T08:13:31.068Z,6.40
2023-05-05T08:15:58.379Z,8.27
2023-05-05T08:18:25.425Z,5.97
2023-05-05T08:20:52.674Z,8.07
2023-05-05T08:23:19.959Z,6.85
2023-05-05T08:25:46.887Z,7.20
2023-05-05T08:28:13.833Z,4.03
2023-05-05T08:30:40.772Z,4.85
2023-05-05T08:33:07.672Z,15.40
2023-05-05T08:35:34.985Z,6.60
2023-05-05T08:38:01.914Z,10.65
2023-05-05T08:40:37.275Z,4.20
2023-05-05T08:43:05.221Z,9.55
2023-05-05T08:45:33.329Z,4.07
2023-05-05T08:48:05.526Z,11.40
2023-05-05T08:53:57.511Z,5.18
2023-05-05T08:56:27.348Z,4.47
2023-05-05T08:58:55.091Z,6.33
2023-05-05T09:01:23.173Z,5.40
2023-05-05T09:03:52.568Z,9.18
2023-05-05T09:06:23.952Z,6.40
2023-05-05T09:08:59.655Z,4.70
2023-05-05T09:11:26.814Z,3.63
2023-05-05T09:13:54.875Z,4.63
2023-05-05T09:16:21.942Z,3.78
2023-05-05T09:18:50.003Z,5.20
2023-05-05T09:21:26.667Z,6.68
2023-05-05T09:24:11.510Z,7.50
2023-05-05T09:26:44.781Z,5.13
2023-05-05T09:29:21.470Z,3.67
2023-05-05T09:32:06.729Z,6.05
2023-05-05T09:34:35.057Z,8.02
2023-05-05T09:37:20.054Z,3.70
2023-05-05T09:39:54.471Z,4.28
2023-05-05T09:42:21.431Z,4.35
2023-05-05T09:44:48.274Z,5.10
2023-05-05T09:47:26.356Z,4.72
2023-05-05T09:49:59.594Z,6.80
2023-05-05T09:52:26.643Z,4.55
2023-05-05T09:54:57.342Z,8.55
2023-05-05T09:57:33.089Z,5.72
2023-05-05T10:00:01.804Z,8.45
2023-05-05T10:02:33.483Z,5.63
2023-05-05T10:05:09.318Z,5.22
2023-05-05T10:07:37.516Z,4.93
2023-05-05T10:10:06.141Z,5.05
2023-05-05T10:12:50.149Z,4.82
2023-05-05T10:15:17.363Z,5.83
2023-05-05T10:18:05.367Z,4.70
2023-05-05T10:20:33.656Z,5.57
2023-05-05T10:23:07.381Z,5.45
2023-05-05T10:25:51.421Z,4.22
2023-05-05T10:28:29.026Z,3.77
2023-05-05T10:30:58.635Z,3.97
2023-05-05T10:33:43.283Z,3.80
2023-05-05T10:36:10.554Z,6.18
2023-05-05T10:38:38.437Z,5.28
2023-05-05T10:41:06.038Z,5.43
2023-05-05T10:43:35.994Z,6.25
2023-05-05T10:46:04.418Z,5.68
2023-05-05T10:48:40.065Z,4.30
2023-05-05T10:51:27.413Z,6.45
2023-05-05T10:54:10.737Z,4.87
2023-05-05T10:56:41.231Z,5.88
2023-05-05T10:59:37.243Z,5.28
2023-05-05T11:02:31.038Z,4.35
2023-05-05T11:05:12.051Z,5.18
2023-05-05T11:07:40.364Z,4.60
2023-05-05T11:10:10.186Z,4.50
2023-05-05T11:12:55.384Z,6.55
2023-05-05T11:15:29.376Z,6.85
2023-05-05T11:18:02.643Z,4.60
2023-05-05T11:20:37.852Z,4.53
2023-05-05T11:23:05.333Z,6.03
2023-05-05T11:25:35.324Z,7.72
2023-05-05T11:28:16.475Z,6.57
2023-05-05T11:30:58.555Z,5.22
2023-05-05T11:33:33.883Z,4.73
2023-05-05T11:36:06.841Z,4.82
2023-05-05T11:38:56.182Z,7.18
2023-05-05T11:41:31.670Z,6.60
2023-05-05T11:44:18.261Z,6.43
2023-05-05T11:46:50.856Z,6.80
2023-05-05T11:49:36.764Z,4.45
2023-05-05T11:52:07.632Z,5.15
2023-05-05T11:54:48.164Z,4.60
2023-05-05T11:57:19.825Z,4.65
2023-05-05T11:59:54.927Z,5.53
2023-05-05T12:02:23.418Z,5.50
2023-05-05T12:04:50.967Z,5.75
2023-05-05T12:07:20.051Z,5.15
2023-05-05T12:09:48.319Z,11.20
2023-05-05T12:12:16.189Z,4.47
2023-05-05T12:14:51.276Z,5.05
2023-05-05T12:17:22.770Z,5.15
2023-05-05T12:19:51.876Z,4.70
2023-05-05T12:22:21.987Z,5.28
2023-05-05T12:25:00.339Z,6.43
2023-05-05T12:27:28.404Z,5.35
2023-05-05T12:29:57.540Z,6.38
2023-05-05T12:32:26.497Z,3.90
2023-05-05T12:34:55.142Z,5.05
2023-05-05T12:37:23.164Z,5.67
2023-05-05T12:39:57.790Z,7.18
2023-05-05T12:42:24.821Z,8.02
2023-05-05T12:44:51.699Z,5.15
2023-05-05T12:47:32.824Z,5.55
2023-05-05T12:50:00.393Z,6.27
2023-05-05T12:52:44.758Z,6.32
2023-05-05T12:55:13.562Z,5.75
2023-05-05T12:57:59.407Z,4.70
2023-05-05T13:00:26.930Z,5.78
2023-05-05T13:02:54.006Z,4.40
2023-05-05T13:05:34.947Z,5.80
2023-05-05T13:08:01.942Z,6.72
2023-05-05T13:10:28.976Z,4.13
2023-05-05T13:12:56.494Z,6.95
2023-05-05T13:15:24.939Z,5.77
2023-05-05T13:17:59.067Z,4.55
2023-05-05T13:20:26.208Z,6.72
2023-05-05T13:22:53.032Z,5.82
2023-05-05T13:25:19.965Z,12.93
2023-05-05T13:27:46.848Z,8.57
2023-05-05T13:30:14.272Z,6.30
2023-05-05T13:32:42.482Z,7.60
2023-05-05T13:35:09.639Z,4.65
2023-05-05T13:37:36.783Z,5.20
2023-05-05T13:40:04.007Z,6.67
2023-05-05T13:42:30.802Z,7.20
2023-05-05T13:44:57.640Z,4.75
2023-05-05T13:47:24.684Z,5.95
2023-05-05T13:49:51.686Z,7.65
2023-05-05T13:52:18.625Z,8.13
2023-05-05T13:54:45.672Z,4.80
2023-05-05T13:57:12.694Z,7.47
2023-05-05T13:59:39.536Z,4.95
2023-05-05T14:02:07.193Z,4.65
2023-05-05T14:04:34.284Z,5.20
2023-05-05T14:07:01.400Z,4.50
2023-05-05T14:09:32.513Z,6.05
2023-05-05T14:11:59.372Z,5.55
2023-05-05T14:14:26.398Z,4.53
2023-05-05T14:16:53.430Z,14.77
2023-05-05T14:19:20.691Z,13.57
2023-05-05T14:21:47.473Z,9.95
2023-05-05T14:24:15.165Z,6.85
2023-05-05T14:26:41.998Z,6.75
2023-05-05T14:29:09.083Z,8.00
2023-05-05T14:31:36.457Z,9.20
2023-05-05T14:34:03.432Z,8.18
2023-05-05T14:36:30.474Z,9.73
2023-05-05T14:38:57.498Z,5.68
2023-05-05T14:41:24.443Z,8.37
2023-05-05T14:43:51.430Z,5.55
2023-05-05T14:46:18.588Z,5.57
2023-05-05T14:48:45.832Z,6.22
2023-05-05T14:51:14.775Z,17.05
2023-05-05T14:53:41.994Z,13.27
2023-05-05T14:56:09.066Z,5.88
2023-05-05T14:58:36.121Z,6.35
2023-05-05T15:01:03.083Z,9.70
2023-05-05T15:03:30.022Z,7.88
2023-05-05T15:05:57.074Z,6.00
2023-05-05T15:08:24.127Z,5.10
2023-05-05T15:10:51.069Z,8.88
2023-05-05T15:13:18.022Z,7.28
2023-05-05T15:15:44.990Z,6.22
2023-05-05T15:18:12.153Z,4.30
2023-05-05T15:20:39.069Z,11.65
2023-05-05T15:23:06.164Z,8.10
2023-05-05T15:25:33.164Z,6.40
2023-05-05T15:28:00.239Z,8.88
2023-05-05T15:30:28.004Z,52.63
2023-05-05T15:32:55.110Z,16.15
2023-05-05T15:35:22.213Z,18.60
2023-05-05T15:37:55.100Z,13.23
2023-05-05T15:40:22.324Z,14.10
2023-05-05T15:42:49.360Z,19.57
2023-05-05T15:45:16.985Z,6.88
2023-05-05T15:47:44.050Z,7.55
2023-05-05T15:50:11.452Z,6.20
2023-05-05T15:52:38.561Z,5.55
2023-05-05T15:55:06.282Z,7.27
2023-05-05T15:57:34.568Z,21.90
2023-05-05T16:00:01.738Z,7.88
2023-05-05T16:02:28.959Z,10.98
2023-05-05T16:04:56.080Z,18.67
2023-05-05T16:07:23.138Z,20.17
2023-05-05T16:09:50.200Z,8.40
2023-05-05T16:12:20.628Z,14.57
2023-05-05T16:14:47.852Z,6.18
2023-05-05T16:17:14.910Z,8.07
2023-05-05T16:19:41.961Z,7.10
2023-05-05T16:22:09.433Z,8.32
2023-05-05T16:24:36.607Z,5.25
2023-05-05T16:27:04.184Z,4.85
2023-05-05T16:29:31.179Z,3.92
2023-05-05T16:31:58.335Z,5.17
2023-05-05T16:34:25.874Z,5.28
2023-05-05T16:36:55.928Z,4.65
2023-05-05T16:39:29.900Z,4.22
2023-05-05T16:41:57.345Z,6.13
2023-05-05T16:44:34.653Z,5.67
2023-05-05T16:47:05.448Z,6.85
2023-05-05T16:49:32.832Z,7.20
2023-05-05T16:51:59.970Z,5.25
2023-05-05T16:54:27.369Z,4.10
2023-05-05T16:56:54.440Z,5.73
2023-05-05T16:59:21.362Z,4.07
2023-05-05T17:01:48.514Z,5.97
2023-05-05T17:04:15.653Z,6.32
2023-05-05T17:06:42.726Z,7.40
2023-05-05T17:09:09.856Z,7.53
2023-05-05T17:11:36.906Z,7.75
2023-05-05T17:14:03.969Z,4.82
2023-05-05T17:16:32.098Z,5.25
2023-05-05T17:18:59.168Z,9.32
2023-05-05T17:21:26.054Z,5.53
2023-05-05T17:23:54.720Z,12.15
2023-05-05T17:26:22.881Z,28.98
2023-05-05T17:28:50.041Z,14.77
2023-05-05T17:31:17.131Z,4.95
2023-05-05T17:33:44.127Z,6.73
2023-05-05T17:36:11.264Z,4.15
2023-05-05T17:38:38.506Z,4.65
2023-05-05T17:41:08.552Z,5.53
2023-05-05T17:43:37.040Z,5.35
2023-05-05T17:46:06.644Z,6.37
2023-05-05T17:48:33.935Z,6.78
2023-05-05T17:51:01.800Z,5.38
2023-05-05T17:53:31.574Z,5.70
2023-05-05T17:56:02.827Z,6.07
2023-05-05T17:58:29.808Z,5.50
2023-05-05T18:00:57.050Z,5.22
2023-05-05T18:03:29.434Z,7.53
2023-05-05T18:06:02.475Z,7.22
2023-05-05T18:08:29.938Z,5.25
2023-05-05T18:10:56.992Z,5.83
2023-05-05T18:13:24.128Z,4.60
2023-05-05T18:15:54.515Z,4.75
2023-05-05T18:18:22.053Z,7.93
2023-05-05T18:20:49.723Z,5.35
2023-05-05T18:23:16.855Z,9.17
2023-05-05T18:25:46.975Z,7.38
2023-05-05T18:28:14.061Z,5.47
2023-05-05T18:30:43.915Z,9.40
2023-05-05T18:33:13.399Z,7.03
2023-05-05T18:35:40.585Z,6.63
2023-05-05T18:38:07.590Z,8.80
2023-05-05T18:40:34.572Z,5.85
2023-05-05T18:43:01.645Z,7.75
2023-05-05T18:45:31.448Z,7.05
2023-05-05T18:47:58.641Z,6.63
2023-05-05T18:50:25.726Z,7.60
2023-05-05T18:52:52.905Z,5.70
2023-05-05T18:55:20.065Z,6.90
2023-05-05T18:57:47.132Z,6.28
2023-05-05T19:00:14.442Z,9.07
2023-05-05T19:02:41.572Z,5.65
2023-05-05T19:05:09.556Z,6.75
2023-05-05T19:07:36.906Z,6.15
2023-05-05T19:10:05.242Z,5.78
2023-05-05T19:12:32.266Z,5.70
2023-05-05T19:15:02.271Z,5.32
2023-05-05T19:17:29.378Z,6.80
2023-05-05T19:19:56.727Z,7.85
2023-05-05T19:22:24.860Z,5.68
2023-05-05T19:24:51.769Z,11.30
2023-05-05T19:27:18.855Z,6.05
2023-05-05T19:29:48.320Z,5.43
2023-05-05T19:32:18.460Z,6.60
2023-05-05T19:34:50.924Z,6.45
2023-05-05T19:37:18.031Z,4.50
2023-05-05T19:39:46.462Z,6.60
2023-05-05T19:42:17.687Z,4.50
2023-05-05T19:44:45.146Z,5.22
2023-05-05T19:47:13.707Z,6.03
2023-05-05T19:49:52.131Z,7.67
2023-05-05T19:52:19.203Z,5.22
2023-05-05T19:54:49.936Z,4.80
2023-05-05T19:57:22.323Z,5.63
2023-05-05T19:59:49.357Z,5.25
2023-05-05T20:02:16.844Z,6.60
2023-05-05T20:04:44.284Z,5.00
2023-05-05T20:07:12.718Z,6.35
2023-05-05T20:09:40.084Z,6.35
2023-05-05T20:12:10.458Z,8.48
2023-05-05T20:14:39.612Z,4.10
2023-05-05T20:17:06.642Z,6.20
2023-05-05T20:19:36.631Z,6.28
2023-05-05T20:22:03.653Z,4.90
2023-05-05T20:24:30.976Z,5.50
2023-05-05T20:26:58.012Z,5.97
2023-05-05T20:29:25.063Z,6.70
2023-05-05T20:31:52.009Z,4.88
2023-05-05T20:34:19.187Z,7.45
2023-05-05T20:36:46.108Z,4.68
2023-05-05T20:39:16.270Z,6.17
2023-05-05T20:41:43.342Z,4.72
2023-05-05T20:44:10.320Z,5.22
2023-05-05T20:46:37.367Z,7.95
2023-05-05T20:49:04.542Z,24.33
2023-05-05T20:51:32.883Z,5.27
2023-05-05T20:54:00.411Z,5.82
2023-05-05T20:56:30.440Z,6.13
2023-05-05T20:58:57.473Z,5.80
2023-05-05T21:01:27.513Z,8.50
2023-05-05T21:03:59.632Z,4.30
2023-05-05T21:06:26.827Z,5.70
2023-05-05T21:08:53.908Z,4.50
2023-05-05T21:11:21.079Z,6.13
2023-05-05T21:13:48.058Z,4.50
2023-05-05T21:16:16.874Z,6.63
2023-05-05T21:18:44.168Z,5.60
2023-05-05T21:21:11.265Z,4.57
2023-05-05T21:23:38.332Z,5.22
2023-05-05T21:26:05.522Z,4.85
2023-05-05T21:28:32.510Z,6.47
2023-05-05T21:31:19.870Z,5.47
2023-05-05T21:33:46.537Z,7.20
2023-05-05T21:36:13.801Z,4.75
2023-05-05T21:38:41.097Z,5.40
2023-05-05T21:41:08.076Z,5.20
2023-05-05T21:43:34.990Z,7.72
2023-05-05T21:46:04.739Z,5.57
2023-05-05T21:48:31.865Z,4.55
2023-05-05T21:50:58.908Z,5.40
2023-05-05T21:53:25.873Z,9.47
2023-05-05T21:55:52.967Z,5.07
2023-05-05T21:58:19.872Z,5.82
2023-05-05T22:00:49.610Z,5.75
2023-05-05T22:03:17.045Z,7.28
2023-05-05T22:05:44.079Z,5.07
2023-05-05T22:08:10.947Z,4.75
2023-05-05T22:10:40.511Z,5.60
2023-05-05T22:13:07.590Z,6.05
2023-05-05T22:15:45.388Z,5.80
2023-05-05T22:18:14.165Z,6.23
2023-05-05T22:20:41.289Z,5.82
2023-05-05T22:23:08.199Z,4.55
2023-05-05T22:25:35.820Z,8.30
2023-05-05T22:28:02.902Z,4.35
2023-05-05T22:30:29.864Z,4.83
2023-05-05T22:33:00.219Z,5.30
2023-05-05T22:35:27.407Z,4.72
2023-05-05T22:37:54.565Z,5.97
2023-05-05T22:40:21.710Z,4.18
2023-05-05T22:42:49.237Z,5.60
2023-05-05T22:45:16.448Z,7.47
2023-05-05T22:47:43.560Z,8.93
2023-05-05T22:50:10.960Z,4.28
2023-05-05T22:52:37.881Z,5.93
2023-05-05T22:55:05.236Z,7.53
2023-05-05T22:57:34.496Z,7.05
2023-05-05T23:00:02.966Z,4.47
2023-05-05T23:02:30.051Z,5.70
2023-05-05T23:04:57.061Z,4.40
2023-05-05T23:07:24.095Z,5.63
2023-05-05T23:09:51.060Z,6.10
2023-05-05T23:12:18.128Z,4.30
2023-05-05T23:14:45.064Z,5.63
2023-05-05T23:17:12.141Z,5.03
2023-05-05T23:19:39.216Z,5.20
2023-05-05T23:22:06.140Z,5.13
2023-05-05T23:24:33.324Z,4.75
2023-05-05T23:27:01.204Z,5.20
2023-05-05T23:29:28.387Z,4.35
2023-05-05T23:31:55.592Z,7.03
2023-05-05T23:34:22.607Z,4.68
2023-05-05T23:36:49.831Z,6.90
2023-05-05T23:39:16.987Z,4.32
2023-05-05T23:41:44.111Z,4.28
2023-05-05T23:44:11.105Z,4.03
2023-05-05T23:46:38.335Z,4.72
2023-05-05T23:49:05.402Z,4.32
2023-05-05T23:51:34.511Z,6.28
2023-05-05T23:54:01.608Z,7.00
2023-05-05T23:56:28.599Z,4.50
2023-05-05T23:58:55.543Z,4.35
